createdAt,value
2023-02-05T00:00:56.307Z,71.84
2023-02-05T00:05:59.463Z,71.19
2023-02-05T00:11:02.733Z,71.35
2023-02-05T00:16:15.103Z,71.85
2023-02-05T00:21:20.047Z,71.32
2023-02-05T00:26:23.341Z,70.28
2023-02-05T00:31:26.563Z,70.22
2023-02-05T00:36:29.716Z,70.07
2023-02-05T00:41:32.782Z,69.82
2023-02-05T00:46:35.948Z,69.48
2023-02-05T00:51:39.058Z,69.72
2023-02-05T00:56:42.264Z,68.98
2023-02-05T01:01:45.450Z,69.31
2023-02-05T01:06:48.933Z,69.09
2023-02-05T01:11:52.089Z,68.84
2023-02-05T01:16:55.261Z,68.76
2023-02-05T01:21:58.490Z,68.95
2023-02-05T01:27:01.567Z,68.87
2023-02-05T01:32:04.858Z,68.95
2023-02-05T01:37:07.865Z,69.31
2023-02-05T01:42:23.120Z,68.95
2023-02-05T01:47:26.580Z,69.00
2023-02-05T01:52:29.730Z,69.08
2023-02-05T01:57:33.308Z,68.81
2023-02-05T02:02:37.558Z,69.36
2023-02-05T02:07:41.770Z,68.83
2023-02-05T02:12:48.525Z,68.76
2023-02-05T02:17:57.607Z,69.31
2023-02-05T02:23:19.135Z,69.11
2023-02-05T02:28:26.256Z,69.23
2023-02-05T02:33:40.735Z,68.64
2023-02-05T02:39:19.619Z,68.89
2023-02-05T02:44:33.693Z,69.07
2023-02-05T02:49:39.513Z,69.22
2023-02-05T02:54:47.773Z,68.86
2023-02-05T02:59:55.737Z,69.45
2023-02-05T03:05:04.439Z,69.98
2023-02-05T03:10:19.477Z,71.01
2023-02-05T03:15:23.166Z,71.46
2023-02-05T03:20:33.383Z,71.16
2023-02-05T03:25:36.694Z,72.20
2023-02-05T03:31:14.857Z,72.47
2023-02-05T03:36:31.493Z,73.05
2023-02-05T03:41:59.519Z,73.21
2023-02-05T03:47:22.867Z,74.10
2023-02-05T03:52:32.225Z,74.73
2023-02-05T03:57:42.716Z,74.75
2023-02-05T04:02:47.401Z,75.61
2023-02-05T04:07:55.935Z,75.27
2023-02-05T04:13:04.006Z,76.35
2023-02-05T04:18:09.159Z,75.71
2023-02-05T04:23:12.683Z,76.38
2023-02-05T04:28:16.121Z,76.77
2023-02-05T04:33:19.289Z,76.21
2023-02-05T04:38:22.531Z,76.84
2023-02-05T04:43:25.788Z,77.27
2023-02-05T04:48:28.941Z,77.73
2023-02-05T04:53:32.142Z,77.51
2023-02-05T04:58:35.461Z,78.09
2023-02-05T05:03:38.597Z,78.62
2023-02-05T05:08:41.892Z,77.91
2023-02-05T05:13:46.467Z,78.80
2023-02-05T05:18:51.868Z,78.88
2023-02-05T05:23:54.906Z,78.93
2023-02-05T05:28:58.173Z,79.10
2023-02-05T05:34:01.232Z,78.67
2023-02-05T05:39:04.631Z,78.89
2023-02-05T05:44:08.423Z,79.01
2023-02-05T05:49:11.493Z,79.34
2023-02-05T05:54:14.780Z,78.72
2023-02-05T05:59:17.807Z,78.43
2023-02-05T06:04:20.940Z,79.00
2023-02-05T06:09:24.054Z,78.55
2023-02-05T06:14:27.193Z,78.23
2023-02-05T06:19:30.415Z,78.02
2023-02-05T06:24:33.360Z,77.18
2023-02-05T06:29:36.862Z,77.64
2023-02-05T06:34:40.406Z,77.79
2023-02-05T06:39:44.911Z,77.81
2023-02-05T06:44:47.992Z,77.22
2023-02-05T06:49:51.107Z,77.15
2023-02-05T06:54:54.125Z,76.69
2023-02-05T06:59:57.352Z,76.92
2023-02-05T07:05:00.382Z,77.10
2023-02-05T07:10:04.336Z,76.81
2023-02-05T07:15:07.891Z,77.31
2023-02-05T07:20:11.438Z,77.54
2023-02-05T07:25:14.619Z,77.69
2023-02-05T07:30:17.924Z,77.81
2023-02-05T07:35:20.847Z,77.27
2023-02-05T07:40:23.890Z,77.56
2023-02-05T07:45:27.117Z,78.51
2023-02-05T07:50:30.076Z,79.03
2023-02-05T07:55:35.061Z,78.91
2023-02-05T08:00:38.661Z,79.38
2023-02-05T08:05:41.495Z,79.25
2023-02-05T08:10:44.519Z,78.89
2023-02-05T08:15:47.752Z,79.32
2023-02-05T08:20:54.838Z,79.41
2023-02-05T08:25:59.273Z,80.30
2023-02-05T08:31:09.882Z,79.85
2023-02-05T08:36:13.143Z,80.10
2023-02-05T08:41:16.385Z,79.98
2023-02-05T08:46:21.356Z,79.59
2023-02-05T08:51:24.811Z,79.56
2023-02-05T08:56:27.938Z,80.07
2023-02-05T09:01:31.715Z,80.31
2023-02-05T09:06:34.898Z,80.24
2023-02-05T09:11:38.153Z,80.66
2023-02-05T09:16:42.415Z,81.19
2023-02-05T09:21:45.579Z,81.72
2023-02-05T09:26:48.717Z,81.84
2023-02-05T09:31:52.181Z,81.79
2023-02-05T09:36:54.940Z,81.43
2023-02-05T09:42:25.253Z,81.05
2023-02-05T09:47:52.536Z,80.50
2023-02-05T09:53:10.138Z,79.82
2023-02-05T09:58:18.504Z,79.21
2023-02-05T10:03:43.371Z,78.71
2023-02-05T10:09:12.623Z,77.80
2023-02-05T10:14:24.797Z,77.74
2023-02-05T10:20:00.531Z,77.21
2023-02-05T10:25:42.395Z,76.62
2023-02-05T10:31:02.024Z,76.12
2023-02-05T10:36:07.375Z,75.74
2023-02-05T10:41:37.955Z,75.32
2023-02-05T10:46:42.052Z,75.24
2023-02-05T10:51:45.850Z,74.78
2023-02-05T10:56:49.170Z,74.80
2023-02-05T11:01:52.633Z,74.49
2023-02-05T11:06:55.655Z,74.53
2023-02-05T11:12:05.499Z,74.40
2023-02-05T11:17:15.167Z,74.20
2023-02-05T11:22:29.870Z,74.18
2023-02-05T11:27:34.497Z,73.81
2023-02-05T11:32:38.737Z,73.58
2023-02-05T11:37:41.991Z,73.39
2023-02-05T11:42:54.293Z,73.10
2023-02-05T11:48:01.070Z,73.22
2023-02-05T11:53:16.041Z,72.81
2023-02-05T11:58:37.013Z,72.81
2023-02-05T12:03:40.930Z,73.03
2023-02-05T12:08:49.813Z,72.42
2023-02-05T12:14:04.404Z,71.88
2023-02-05T12:19:31.389Z,72.18
2023-02-05T12:24:43.980Z,72.37
2023-02-05T12:30:01.936Z,72.01
2023-02-05T12:35:25.501Z,72.22
2023-02-05T12:41:07.027Z,72.22
2023-02-05T12:46:37.853Z,71.89
2023-02-05T12:52:06.175Z,72.09
2023-02-05T12:57:09.994Z,72.01
2023-02-05T13:02:40.699Z,72.02
2023-02-05T13:07:51.340Z,71.96
2023-02-05T13:13:00.756Z,71.89
2023-02-05T13:18:20.102Z,72.08
2023-02-05T13:23:24.274Z,71.98
2023-02-05T13:28:38.082Z,71.84
2023-02-05T13:33:42.703Z,71.94
2023-02-05T13:38:54.455Z,71.88
2023-02-05T13:44:01.579Z,71.80
2023-02-05T13:49:29.131Z,71.53
2023-02-05T13:54:38.706Z,71.95
2023-02-05T13:59:46.177Z,71.85
2023-02-05T14:04:50.473Z,71.81
2023-02-05T14:09:56.657Z,71.80
2023-02-05T14:15:19.154Z,72.02
2023-02-05T14:20:26.502Z,72.03
2023-02-05T14:25:36.194Z,71.77
2023-02-05T14:30:50.955Z,72.11
2023-02-05T14:36:15.496Z,72.10
2023-02-05T14:41:20.412Z,71.85
2023-02-05T14:47:04.539Z,71.87
2023-02-05T14:52:28.095Z,71.92
2023-02-05T14:57:55.984Z,71.83
2023-02-05T15:03:07.142Z,71.63
2023-02-05T15:08:22.325Z,71.30
2023-02-05T15:13:25.875Z,71.22
2023-02-05T15:18:33.881Z,71.09
2023-02-05T15:23:47.286Z,70.74
2023-02-05T15:29:07.588Z,70.84
2023-02-05T15:34:29.072Z,70.74
2023-02-05T15:39:56.273Z,70.67
2023-02-05T15:44:59.316Z,70.68
2023-02-05T15:50:04.561Z,70.67
2023-02-05T15:55:19.234Z,70.87
2023-02-05T16:00:29.468Z,70.72
2023-02-05T16:05:33.381Z,70.45
2023-02-05T16:10:36.930Z,70.27
2023-02-05T16:15:45.630Z,70.61
2023-02-05T16:21:00.437Z,70.28
2023-02-05T16:26:11.611Z,70.20
2023-02-05T16:31:19.067Z,70.03
2023-02-05T16:36:25.089Z,69.80
2023-02-05T16:41:36.849Z,69.84
2023-02-05T16:46:40.527Z,69.81
2023-02-05T16:51:46.229Z,70.16
2023-02-05T16:56:56.558Z,69.86
2023-02-05T17:02:00.286Z,69.97
2023-02-05T17:07:06.286Z,69.80
2023-02-05T17:12:27.226Z,70.00
2023-02-05T17:17:32.829Z,69.94
2023-02-05T17:22:36.359Z,69.89
2023-02-05T17:27:39.973Z,69.45
2023-02-05T17:32:43.726Z,69.55
2023-02-05T17:37:46.563Z,69.60
2023-02-05T17:42:49.547Z,69.34
2023-02-05T17:47:52.977Z,69.35
2023-02-05T17:52:55.792Z,69.77
2023-02-05T17:57:58.743Z,69.62
2023-02-05T18:03:02.192Z,69.36
2023-02-05T18:08:05.659Z,69.15
2023-02-05T18:13:08.640Z,69.44
2023-02-05T18:18:13.726Z,68.96
2023-02-05T18:23:28.824Z,69.21
2023-02-05T18:28:34.660Z,68.98
2023-02-05T18:33:38.157Z,68.82
2023-02-05T18:38:42.604Z,68.71
2023-02-05T18:43:45.712Z,68.91
2023-02-05T18:48:49.076Z,68.91
2023-02-05T18:53:53.663Z,68.94
2023-02-05T18:59:04.880Z,68.95
2023-02-05T19:04:13.622Z,68.94
2023-02-05T19:09:20.227Z,69.07
2023-02-05T19:14:27.225Z,69.05
2023-02-05T19:19:30.501Z,68.94
2023-02-05T19:24:34.071Z,69.00
2023-02-05T19:29:37.346Z,68.87
2023-02-05T19:34:41.282Z,68.84
2023-02-05T19:39:44.226Z,69.02
2023-02-05T19:44:47.664Z,69.04
2023-02-05T19:49:50.800Z,69.07
2023-02-05T19:54:53.869Z,68.78
2023-02-05T19:59:57.369Z,68.92
2023-02-05T20:05:01.543Z,68.68
2023-02-05T20:10:06.633Z,68.49
2023-02-05T20:15:11.474Z,68.37
2023-02-05T20:20:28.161Z,68.38
2023-02-05T20:25:40.755Z,68.31
2023-02-05T20:30:44.189Z,68.08
2023-02-05T20:35:47.352Z,67.91
2023-02-05T20:40:50.385Z,68.25
2023-02-05T20:45:53.438Z,68.27
2023-02-05T20:50:56.539Z,68.10
2023-02-05T20:56:17.186Z,68.32
2023-02-05T21:01:23.581Z,68.22
2023-02-05T21:06:34.158Z,67.93
2023-02-05T21:11:38.012Z,67.84
2023-02-05T21:16:41.088Z,68.01
2023-02-05T21:21:44.280Z,67.78
2023-02-05T21:26:48.450Z,68.73
2023-02-05T21:31:54.454Z,69.96
2023-02-05T21:36:58.777Z,70.57
2023-02-05T21:42:01.906Z,69.90
2023-02-05T21:47:05.132Z,70.14
2023-02-05T21:52:08.665Z,69.99
2023-02-05T21:57:12.513Z,69.25
2023-02-05T22:02:16.599Z,68.99
2023-02-05T22:07:19.533Z,68.60
2023-02-05T22:12:22.459Z,68.06
2023-02-05T22:17:25.563Z,67.01
2023-02-05T22:22:28.716Z,67.39
2023-02-05T22:27:31.738Z,67.44
2023-02-05T22:32:35.010Z,67.47
2023-02-05T22:37:37.997Z,67.66
2023-02-05T22:42:41.164Z,68.04
2023-02-05T22:47:44.245Z,68.10
2023-02-05T22:52:47.830Z,67.87
2023-02-05T22:57:50.881Z,67.39
2023-02-05T23:02:57.655Z,67.11
2023-02-05T23:08:00.793Z,66.66
2023-02-05T23:13:03.984Z,66.13
2023-02-05T23:18:07.119Z,65.54
2023-02-05T23:23:10.188Z,65.28
2023-02-05T23:28:13.452Z,65.19
2023-02-05T23:33:16.629Z,64.54
2023-02-05T23:38:19.755Z,64.21
2023-02-05T23:43:23.667Z,64.05
2023-02-05T23:48:26.983Z,63.88
2023-02-05T23:53:29.889Z,64.15
2023-02-05T23:58:32.905Z,63.61
